createdAt,value
2022-11-21T00:02:00.549Z,0.40
2022-11-21T00:07:02.091Z,0.70
2022-11-21T00:12:03.727Z,0.40
2022-11-21T00:17:05.180Z,0.80
2022-11-21T00:22:06.738Z,0.57
2022-11-21T00:27:08.267Z,0.40
2022-11-21T00:32:09.737Z,0.55
2022-11-21T00:37:11.237Z,0.28
2022-11-21T00:42:16.008Z,0.55
2022-11-21T00:47:17.791Z,0.20
2022-11-21T00:52:19.544Z,0.20
2022-11-21T00:57:21.076Z,0.20
2022-11-21T01:02:22.830Z,0.20
2022-11-21T01:07:25.258Z,0.28
2022-11-21T01:12:26.783Z,0.10
2022-11-21T01:17:28.414Z,0.15
2022-11-21T01:22:29.913Z,0.25
2022-11-21T01:27:31.466Z,0.35
2022-11-21T01:32:33.029Z,0.20
2022-11-21T01:37:34.560Z,0.30
2022-11-21T01:43:02.702Z,0.85
2022-11-21T01:53:06.092Z,0.40
2022-11-21T01:58:11.562Z,0.50
2022-11-21T02:03:19.989Z,0.20
2022-11-21T02:08:23.698Z,0.52
2022-11-21T02:13:25.330Z,0.40
2022-11-21T02:18:26.847Z,0.50
2022-11-21T02:23:41.921Z,0.40
2022-11-21T02:28:44.248Z,0.52
2022-11-21T02:33:45.726Z,0.47
2022-11-21T02:38:47.457Z,0.73
2022-11-21T02:43:55.447Z,0.68
2022-11-21T02:48:58.519Z,1.02
2022-11-21T02:54:00.036Z,0.70
2022-11-21T02:59:01.628Z,0.40
2022-11-21T03:04:03.143Z,1.10
2022-11-21T03:09:04.669Z,0.98
2022-11-21T03:14:06.239Z,1.75
2022-11-21T03:19:08.066Z,1.13
2022-11-21T03:24:09.814Z,0.57
2022-11-21T03:29:11.325Z,0.95
2022-11-21T03:34:12.781Z,0.70
2022-11-21T03:39:14.300Z,1.25
2022-11-21T03:44:16.127Z,0.75
2022-11-21T03:49:17.651Z,1.35
2022-11-21T03:54:19.148Z,0.90
2022-11-21T03:59:20.717Z,1.20
2022-11-21T04:04:22.240Z,1.60
2022-11-21T04:09:23.704Z,0.95
2022-11-21T04:14:25.135Z,0.90
2022-11-21T04:19:26.654Z,0.73
2022-11-21T04:24:28.342Z,1.55
2022-11-21T04:29:30.092Z,0.85
2022-11-21T04:34:31.614Z,1.10
2022-11-21T04:39:33.112Z,1.52
2022-11-21T04:44:34.596Z,1.10
2022-11-21T04:49:36.114Z,0.73
2022-11-21T04:54:37.621Z,0.82
2022-11-21T04:59:39.086Z,0.70
2022-11-21T05:04:43.280Z,1.98
2022-11-21T05:09:44.789Z,0.85
2022-11-21T05:14:46.243Z,0.63
2022-11-21T05:19:47.708Z,0.52
2022-11-21T05:24:49.183Z,0.98
2022-11-21T05:29:50.743Z,2.15
2022-11-21T05:34:52.135Z,0.82
2022-11-21T05:39:53.519Z,0.70
2022-11-21T05:44:54.835Z,1.48
2022-11-21T05:49:56.166Z,0.80
2022-11-21T05:54:57.513Z,0.70
2022-11-21T05:59:58.867Z,1.38
2022-11-21T06:05:00.180Z,0.50
2022-11-21T06:10:01.522Z,1.23
2022-11-21T06:15:03.093Z,0.57
2022-11-21T06:20:04.932Z,2.10
2022-11-21T06:25:07.671Z,0.75
2022-11-21T06:30:09.497Z,1.25
2022-11-21T06:35:10.934Z,1.15
2022-11-21T06:40:12.495Z,0.90
2022-11-21T06:45:13.907Z,0.68
2022-11-21T06:50:15.640Z,1.10
2022-11-21T06:55:17.028Z,0.73
2022-11-21T07:00:18.637Z,1.17
2022-11-21T07:05:20.149Z,1.88
2022-11-21T07:10:21.482Z,0.77
2022-11-21T07:15:22.834Z,1.00
2022-11-21T07:20:24.246Z,0.90
2022-11-21T07:25:25.614Z,1.02
2022-11-21T07:30:27.417Z,1.02
2022-11-21T07:35:29.007Z,1.00
2022-11-21T07:40:33.118Z,1.10
2022-11-21T07:45:34.563Z,1.00
2022-11-21T07:50:36.098Z,1.00
2022-11-21T07:55:40.636Z,0.95
2022-11-21T08:00:45.279Z,0.90
2022-11-21T08:05:47.316Z,1.83
2022-11-21T08:10:48.695Z,1.90
2022-11-21T08:15:50.056Z,1.10
2022-11-21T08:20:51.411Z,1.42
2022-11-21T08:25:52.812Z,2.35
2022-11-21T08:30:54.329Z,1.70
2022-11-21T08:35:55.690Z,1.55
2022-11-21T08:41:17.824Z,1.73
2022-11-21T08:46:19.336Z,1.60
2022-11-21T08:51:21.222Z,1.70
2022-11-21T08:56:22.901Z,1.85
2022-11-21T09:01:24.266Z,1.73
2022-11-21T09:06:25.757Z,1.98
2022-11-21T09:11:27.324Z,1.00
2022-11-21T09:16:47.411Z,1.42
2022-11-21T09:21:50.069Z,1.48
2022-11-21T09:26:51.471Z,1.50
2022-11-21T09:31:52.831Z,1.20
2022-11-21T09:36:55.403Z,1.50
2022-11-21T09:42:34.262Z,1.80
2022-11-21T09:47:45.066Z,2.00
2022-11-21T09:53:21.040Z,1.95
2022-11-21T09:58:34.460Z,1.60
2022-11-21T10:03:42.295Z,0.90
2022-11-21T10:08:58.291Z,1.08
2022-11-21T10:14:16.411Z,0.90
2022-11-21T10:19:36.653Z,1.15
2022-11-21T10:25:11.889Z,0.60
2022-11-21T10:30:17.671Z,0.55
2022-11-21T10:35:30.352Z,0.57
2022-11-21T10:40:44.135Z,0.65
2022-11-21T10:45:45.497Z,0.98
2022-11-21T10:50:55.221Z,0.40
2022-11-21T10:56:01.426Z,0.45
2022-11-21T11:01:03.207Z,0.50
2022-11-21T11:06:04.602Z,0.40
2022-11-21T11:11:07.702Z,0.52
2022-11-21T11:16:11.853Z,0.35
2022-11-21T11:21:20.471Z,0.80
2022-11-21T11:26:27.882Z,0.55
2022-11-21T11:31:40.345Z,0.20
2022-11-21T11:36:53.433Z,0.30
2022-11-21T11:42:33.146Z,0.30
2022-11-21T11:47:42.882Z,0.43
2022-11-21T11:53:10.650Z,0.52
2022-11-21T11:58:21.654Z,0.70
2022-11-21T12:03:40.605Z,0.32
2022-11-21T12:08:56.118Z,0.38
2022-11-21T12:14:09.326Z,0.50
2022-11-21T12:19:16.926Z,0.60
2022-11-21T12:24:20.948Z,0.40
2022-11-21T12:29:41.032Z,0.40
2022-11-21T12:35:07.541Z,0.30
2022-11-21T12:40:27.158Z,0.60
2022-11-21T12:45:47.192Z,1.00
2022-11-21T12:51:33.901Z,0.35
2022-11-21T12:56:47.403Z,0.30
2022-11-21T13:02:27.400Z,1.67
2022-11-21T13:07:31.354Z,0.40
2022-11-21T13:12:40.413Z,0.40
2022-11-21T13:17:49.561Z,0.73
2022-11-21T13:22:54.020Z,0.40
2022-11-21T13:28:16.523Z,0.45
2022-11-21T13:33:48.126Z,0.50
2022-11-21T13:38:55.621Z,0.20
2022-11-21T13:44:30.009Z,0.30
2022-11-21T13:49:43.790Z,1.15
2022-11-21T13:55:07.656Z,0.25
2022-11-21T14:00:32.298Z,0.70
2022-11-21T14:05:53.983Z,3.97
2022-11-21T14:10:58.199Z,0.55
2022-11-21T14:16:18.247Z,0.40
2022-11-21T14:21:27.034Z,0.30
2022-11-21T14:26:31.357Z,0.75
2022-11-21T14:31:45.321Z,0.60
2022-11-21T14:36:46.981Z,0.30
2022-11-21T14:41:51.258Z,1.08
2022-11-21T14:47:06.921Z,1.10
2022-11-21T14:52:17.885Z,0.60
2022-11-21T14:57:32.117Z,0.70
2022-11-21T15:02:34.155Z,1.05
2022-11-21T15:07:44.099Z,0.70
2022-11-21T15:12:48.472Z,0.60
2022-11-21T15:18:24.369Z,0.40
2022-11-21T15:23:32.121Z,1.02
2022-11-21T15:28:33.539Z,0.95
2022-11-21T15:39:22.600Z,1.80
2022-11-21T15:44:24.016Z,1.02
2022-11-21T15:54:47.294Z,1.25
2022-11-21T15:57:13.221Z,1.58
2022-11-21T15:59:49.704Z,1.38
2022-11-21T16:04:52.621Z,1.77
2022-11-21T16:09:55.837Z,1.33
2022-11-21T16:14:57.210Z,1.38
2022-11-21T16:19:58.579Z,2.05
2022-11-21T16:24:59.927Z,2.58
2022-11-21T16:30:01.390Z,2.38
2022-11-21T16:35:03.108Z,1.92
2022-11-21T16:40:05.142Z,1.95
2022-11-21T16:45:06.826Z,1.67
2022-11-21T16:50:08.335Z,1.35
2022-11-21T16:55:09.901Z,1.95
2022-11-21T17:00:14.506Z,1.80
2022-11-21T17:05:16.470Z,2.00
2022-11-21T17:10:17.953Z,1.92
2022-11-21T17:15:19.411Z,2.17
2022-11-21T17:20:20.950Z,2.10
2022-11-21T17:25:22.506Z,2.97
2022-11-21T17:30:24.291Z,2.10
2022-11-21T17:35:25.744Z,2.47
2022-11-21T17:40:27.170Z,4.32
2022-11-21T17:45:28.700Z,5.45
2022-11-21T17:50:30.240Z,4.03
2022-11-21T17:55:31.627Z,8.73
2022-11-21T18:00:33.043Z,10.52
2022-11-21T18:05:34.440Z,8.10
2022-11-21T18:10:43.317Z,4.95
2022-11-21T18:15:45.500Z,4.25
2022-11-21T18:20:46.983Z,2.67
2022-11-21T18:25:48.366Z,2.63
2022-11-21T18:30:49.713Z,2.65
2022-11-21T18:35:51.143Z,2.63
2022-11-21T18:40:52.615Z,3.25
2022-11-21T18:45:54.005Z,2.67
2022-11-21T18:50:55.434Z,2.55
2022-11-21T18:55:59.015Z,2.75
2022-11-21T19:01:02.065Z,2.40
2022-11-21T19:06:07.189Z,4.15
2022-11-21T19:11:11.254Z,3.13
2022-11-21T19:16:15.576Z,2.47
2022-11-21T19:21:17.412Z,2.70
2022-11-21T19:26:21.532Z,3.28
2022-11-21T19:31:23.058Z,1.95
2022-11-21T19:36:24.670Z,2.25
2022-11-21T19:41:26.710Z,1.80
2022-11-21T19:46:33.511Z,1.85
2022-11-21T19:51:41.132Z,2.33
2022-11-21T20:01:48.150Z,2.63
2022-11-21T20:06:52.520Z,1.88
2022-11-21T20:11:53.922Z,2.33
2022-11-21T20:16:55.817Z,1.75
2022-11-21T20:21:57.358Z,1.83
2022-11-21T20:26:59.309Z,1.17
2022-11-21T20:32:02.311Z,1.77
2022-11-21T20:37:04.631Z,1.10
2022-11-21T20:42:06.703Z,1.63
2022-11-21T20:47:09.046Z,2.80
2022-11-21T20:57:31.918Z,3.08
2022-11-21T21:02:33.258Z,1.70
2022-11-21T21:07:34.818Z,2.83
2022-11-21T21:12:36.203Z,3.38
2022-11-21T21:17:37.533Z,2.00
2022-11-21T21:22:39.617Z,1.52
2022-11-21T21:27:40.998Z,1.42
2022-11-21T21:32:42.548Z,1.15
2022-11-21T21:37:43.901Z,1.33
2022-11-21T21:42:45.251Z,1.48
2022-11-21T21:47:46.582Z,1.50
2022-11-21T21:52:47.997Z,1.88
2022-11-21T21:57:52.466Z,1.27
2022-11-21T22:02:54.405Z,1.33
2022-11-21T22:07:55.816Z,1.77
2022-11-21T22:12:57.149Z,2.08
2022-11-21T22:17:58.536Z,1.63
2022-11-21T22:23:00.726Z,2.00
2022-11-21T22:28:02.162Z,1.90
2022-11-21T22:33:03.672Z,1.65
2022-11-21T22:38:05.003Z,1.50
2022-11-21T22:43:06.920Z,2.35
2022-11-21T22:48:08.379Z,1.88
2022-11-21T22:53:09.848Z,1.85
2022-11-21T22:58:11.350Z,1.67
2022-11-21T23:03:12.735Z,1.45
2022-11-21T23:08:14.135Z,1.90
2022-11-21T23:13:15.520Z,1.92
2022-11-21T23:18:16.883Z,1.95
2022-11-21T23:23:19.242Z,2.33
2022-11-21T23:28:20.632Z,2.00
2022-11-21T23:33:22.239Z,2.10
2022-11-21T23:38:23.636Z,1.42
2022-11-21T23:43:25.100Z,1.75
2022-11-21T23:48:27.257Z,1.60
2022-11-21T23:53:28.753Z,1.83
2022-11-21T23:58:30.168Z,1.70
